CST,Max TemperatureF,Mean TemperatureF,Min TemperatureF,Max Dew PointF,MeanDew PointF,Min DewpointF,Max Humidity, Mean Humidity, Min Humidity, Max Sea Level PressureIn, Mean Sea Level PressureIn, Min Sea Level PressureIn, Max VisibilityMiles, Mean VisibilityMiles, Min VisibilityMiles, Max Wind SpeedMPH, Mean Wind SpeedMPH, Max Gust SpeedMPH,PrecipitationIn, CloudCover, Events, WindDirDegrees
2012-11-1,86,71,56,68,63,56,100,72,43,30.08,30.03,29.97,10,5,0,14,4,18,0.00,1,Fog,222
2012-11-2,85,72,59,70,65,59,100,74,48,30.07,30.02,29.99,10,5,0,15,6,23,0.00,1,Fog,199
2012-11-3,84,73,62,70,65,62,100,76,51,30.12,30.06,30.03,10,8,0,15,5,26,0.00,1,Fog-Rain,175
2012-11-4,81,71,61,69,64,61,100,79,58,30.10,30.06,30.01,10,5,0,14,2,17,0.10,1,Fog-Rain,286
2012-11-5,83,71,59,68,64,53,100,74,47,30.07,30.02,29.92,10,5,0,13,4,17,0.00,6,Fog,67
2012-11-6,73,62,50,54,46,40,89,60,31,30.12,30.07,30.00,10,10,9,15,7,20,0.00,0,,335
2012-11-7,79,63,47,49,44,38,100,62,23,30.17,30.11,30.06,10,10,8,13,4,24,0.00,0,,357
2012-11-8,74,62,50,55,51,43,83,66,49,30.23,30.16,30.14,10,10,10,16,9,24,0.00,0,,109
2012-11-9,79,67,55,62,58,53,93,72,50,30.18,30.13,30.10,10,10,7,18,10,24,0.00,1,,130
2012-11-10,82,72,61,66,63,60,93,70,47,30.13,30.07,30.01,10,9,5,22,12,26,0.00,4,,131
2012-11-11,80,76,71,70,69,66,93,84,74,30.07,29.99,29.95,10,9,7,26,13,33,0.00,7,,156
2012-11-12,71,59,46,64,45,32,93,61,29,30.43,30.28,30.09,10,10,8,28,15,36,0.03,4,Rain,5
2012-11-13,62,51,40,35,31,26,70,49,27,30.48,30.39,30.32,10,10,10,22,10,30,0.00,0,,27
2012-11-14,65,54,43,37,33,29,71,49,26,30.40,30.33,30.27,10,10,10,15,7,18,T,2,,15
2012-11-15,67,52,37,37,34,27,92,58,24,30.34,30.28,30.21,10,10,10,12,5,18,0.00,0,,30
2012-11-16,68,54,39,42,38,34,86,60,34,30.35,30.31,30.26,10,10,10,15,8,18,0.00,0,,29
2012-11-17,70,55,39,44,39,35,93,61,28,30.38,30.33,30.28,10,10,6,10,4,16,0.00,0,,42
2012-11-18,70,57,43,45,41,37,93,62,31,30.33,30.29,30.24,10,9,6,12,4,14,0.00,0,,76
2012-11-19,72,58,43,53,48,42,100,71,41,30.29,30.23,30.18,10,5,0,10,3,12,0.00,0,Fog,94
2012-11-20,78,62,46,57,49,45,100,68,35,30.24,30.19,30.12,10,3,0,10,2,14,0.00,1,Fog,265
2012-11-21,82,66,49,59,52,43,100,63,26,30.26,30.20,30.15,10,4,0,13,5,16,0.00,0,Fog,320
2012-11-22,77,62,47,61,52,48,100,72,43,30.23,30.17,30.13,10,6,0,15,3,20,0.00,1,Fog,170
2012-11-23,77,66,54,63,57,45,100,75,50,30.31,30.22,30.16,10,6,0,20,6,24,T,6,Fog-Rain,21
2012-11-24,63,52,40,46,35,31,76,54,32,30.37,30.28,30.19,10,10,10,18,7,23,0.00,1,,14
2012-11-25,72,56,39,63,52,38,93,73,53,30.17,30.09,30.00,10,10,9,15,8,20,0.00,2,,113
2012-11-26,82,74,65,70,66,64,100,81,62,30.06,30.01,29.96,10,9,6,21,8,28,T,5,Rain,185
2012-11-27,67,58,48,63,53,44,93,81,69,30.34,30.21,30.06,10,9,4,22,10,29,0.13,6,Rain-Thunderstorm,346
2012-11-28,67,53,39,45,40,35,100,66,32,30.45,30.36,30.30,10,10,6,12,6,15,0.00,0,,37
2012-11-29,67,54,41,55,48,39,100,78,56,30.32,30.26,30.20,10,9,5,13,6,17,0.00,0,,81
2012-11-30,73,63,53,64,61,53,100,84,68,30.22,30.18,30.14,10,6,2,16,10,20,T,7,Rain,112